sensor_id;sensor_type;location;lat;lon;timestamp;temperature;humidity
29241;DHT22;16268;49.880;8.648;2022-11-14T00:00:49;6.90;99.90
29241;DHT22;16268;49.880;8.648;2022-11-14T00:03:15;6.80;99.90
29241;DHT22;16268;49.880;8.648;2022-11-14T00:05:42;6.70;99.90
29241;DHT22;16268;49.880;8.648;2022-11-14T00:08:20;6.70;99.90
29241;DHT22;16268;49.880;8.648;2022-11-14T00:10:47;6.60;99.90
29241;DHT22;16268;49.880;8.648;2022-11-14T00:13:13;6.60;99.90
29241;DHT22;16268;49.880;8.648;2022-11-14T00:15:39;6.60;99.90
29241;DHT22;16268;49.880;8.648;2022-11-14T00:18:05;6.60;99.90
29241;DHT22;16268;49.880;8.648;2022-11-14T00:20:31;6.50;99.90
29241;DHT22;16268;49.880;8.648;2022-11-14T00:22:56;6.40;99.90
29241;DHT22;16268;49.880;8.648;2022-11-14T00:25:22;6.40;99.90
29241;DHT22;16268;49.880;8.648;2022-11-14T00:27:48;6.40;99.90
29241;DHT22;16268;49.880;8.648;2022-11-14T00:30:13;6.30;99.90
29241;DHT22;16268;49.880;8.648;2022-11-14T00:32:39;6.30;99.90
29241;DHT22;16268;49.880;8.648;2022-11-14T00:35:05;6.30;99.90
29241;DHT22;16268;49.880;8.648;2022-11-14T00:37:30;6.20;99.90
29241;DHT22;16268;49.880;8.648;2022-11-14T00:39:56;6.20;99.90
29241;DHT22;16268;49.880;8.648;2022-11-14T00:42:22;6.30;99.90
29241;DHT22;16268;49.880;8.648;2022-11-14T00:44:47;6.30;99.90
29241;DHT22;16268;49.880;8.648;2022-11-14T00:47:13;6.30;99.90
29241;DHT22;16268;49.880;8.648;2022-11-14T00:49:38;6.30;99.90
29241;DHT22;16268;49.880;8.648;2022-11-14T00:52:04;6.20;99.90
29241;DHT22;16268;49.880;8.648;2022-11-14T00:54:30;6.20;99.90
29241;DHT22;16268;49.880;8.648;2022-11-14T00:56:57;6.20;99.90
29241;DHT22;16268;49.880;8.648;2022-11-14T00:59:22;6.20;99.90
29241;DHT22;16268;49.880;8.648;2022-11-14T01:01:48;6.20;99.90
29241;DHT22;16268;49.880;8.648;2022-11-14T01:04:13;6.20;99.90
29241;DHT22;16268;49.880;8.648;2022-11-14T01:06:39;6.30;99.90
29241;DHT22;16268;49.880;8.648;2022-11-14T01:09:04;6.20;99.90
29241;DHT22;16268;49.880;8.648;2022-11-14T01:11:30;6.20;99.90
29241;DHT22;16268;49.880;8.648;2022-11-14T01:13:55;6.20;99.90
29241;DHT22;16268;49.880;8.648;2022-11-14T01:16:22;6.20;99.90
29241;DHT22;16268;49.880;8.648;2022-11-14T01:18:47;6.30;99.90
29241;DHT22;16268;49.880;8.648;2022-11-14T01:21:13;6.40;99.90
29241;DHT22;16268;49.880;8.648;2022-11-14T01:23:39;6.40;99.90
29241;DHT22;16268;49.880;8.648;2022-11-14T01:26:08;6.30;99.90
29241;DHT22;16268;49.880;8.648;2022-11-14T01:28:35;6.30;99.90
29241;DHT22;16268;49.880;8.648;2022-11-14T01:31:30;6.10;99.90
29241;DHT22;16268;49.880;8.648;2022-11-14T01:33:55;6.10;99.90
29241;DHT22;16268;49.880;8.648;2022-11-14T01:36:21;6.10;99.90
29241;DHT22;16268;49.880;8.648;2022-11-14T01:38:51;6.10;99.90
29241;DHT22;16268;49.880;8.648;2022-11-14T01:41:17;5.90;99.90
29241;DHT22;16268;49.880;8.648;2022-11-14T01:43:42;5.90;99.90
29241;DHT22;16268;49.880;8.648;2022-11-14T01:46:17;5.90;99.90
29241;DHT22;16268;49.880;8.648;2022-11-14T01:48:51;5.90;99.90
29241;DHT22;16268;49.880;8.648;2022-11-14T01:51:33;5.90;99.90
29241;DHT22;16268;49.880;8.648;2022-11-14T01:54:04;5.90;99.90
29241;DHT22;16268;49.880;8.648;2022-11-14T01:56:38;6.00;99.90
29241;DHT22;16268;49.880;8.648;2022-11-14T01:59:10;5.80;99.90
29241;DHT22;16268;49.880;8.648;2022-11-14T02:01:41;5.90;99.90
29241;DHT22;16268;49.880;8.648;2022-11-14T02:04:09;6.00;99.90
29241;DHT22;16268;49.880;8.648;2022-11-14T02:06:35;5.90;99.90
29241;DHT22;16268;49.880;8.648;2022-11-14T02:09:05;6.00;99.90
29241;DHT22;16268;49.880;8.648;2022-11-14T02:11:35;6.00;99.90
29241;DHT22;16268;49.880;8.648;2022-11-14T02:14:05;5.90;99.90
29241;DHT22;16268;49.880;8.648;2022-11-14T02:16:31;5.90;99.90
29241;DHT22;16268;49.880;8.648;2022-11-14T02:18:56;5.90;99.90
29241;DHT22;16268;49.880;8.648;2022-11-14T02:21:22;5.80;99.90
29241;DHT22;16268;49.880;8.648;2022-11-14T02:23:48;5.80;99.90
29241;DHT22;16268;49.880;8.648;2022-11-14T02:26:19;5.80;99.90
29241;DHT22;16268;49.880;8.648;2022-11-14T02:28:45;5.80;99.90
29241;DHT22;16268;49.880;8.648;2022-11-14T02:31:11;5.60;99.90
29241;DHT22;16268;49.880;8.648;2022-11-14T02:33:36;5.50;99.90
29241;DHT22;16268;49.880;8.648;2022-11-14T02:36:02;5.50;99.90
29241;DHT22;16268;49.880;8.648;2022-11-14T02:38:28;5.50;99.90
29241;DHT22;16268;49.880;8.648;2022-11-14T02:40:53;5.40;99.90
29241;DHT22;16268;49.880;8.648;2022-11-14T02:43:19;5.50;99.90
29241;DHT22;16268;49.880;8.648;2022-11-14T02:45:44;5.50;99.90
29241;DHT22;16268;49.880;8.648;2022-11-14T02:48:10;5.60;99.90
29241;DHT22;16268;49.880;8.648;2022-11-14T02:50:35;5.60;99.90
29241;DHT22;16268;49.880;8.648;2022-11-14T02:53:01;5.50;99.90
29241;DHT22;16268;49.880;8.648;2022-11-14T02:55:26;5.50;99.90
29241;DHT22;16268;49.880;8.648;2022-11-14T02:57:52;5.50;99.90
29241;DHT22;16268;49.880;8.648;2022-11-14T03:00:18;5.50;99.90
29241;DHT22;16268;49.880;8.648;2022-11-14T03:02:43;5.40;99.90
29241;DHT22;16268;49.880;8.648;2022-11-14T03:05:09;5.40;99.90
29241;DHT22;16268;49.880;8.648;2022-11-14T03:07:35;5.30;99.90
29241;DHT22;16268;49.880;8.648;2022-11-14T03:10:00;5.20;99.90
29241;DHT22;16268;49.880;8.648;2022-11-14T03:12:26;5.20;99.90
29241;DHT22;16268;49.880;8.648;2022-11-14T03:14:52;5.10;99.90
29241;DHT22;16268;49.880;8.648;2022-11-14T03:17:17;5.10;99.90
29241;DHT22;16268;49.880;8.648;2022-11-14T03:19:43;5.00;99.90
29241;DHT22;16268;49.880;8.648;2022-11-14T03:22:08;4.90;99.90
29241;DHT22;16268;49.880;8.648;2022-11-14T03:24:34;4.80;99.90
29241;DHT22;16268;49.880;8.648;2022-11-14T03:26:59;4.70;99.90
29241;DHT22;16268;49.880;8.648;2022-11-14T03:29:25;4.60;99.90
29241;DHT22;16268;49.880;8.648;2022-11-14T03:31:50;4.70;99.90
29241;DHT22;16268;49.880;8.648;2022-11-14T03:34:16;4.80;99.90
29241;DHT22;16268;49.880;8.648;2022-11-14T03:36:42;4.90;99.90
29241;DHT22;16268;49.880;8.648;2022-11-14T03:39:07;5.00;99.90
29241;DHT22;16268;49.880;8.648;2022-11-14T03:41:33;5.20;99.90
29241;DHT22;16268;49.880;8.648;2022-11-14T03:43:59;5.10;99.90
29241;DHT22;16268;49.880;8.648;2022-11-14T03:46:24;5.10;99.90
29241;DHT22;16268;49.880;8.648;2022-11-14T03:48:50;5.00;99.90
29241;DHT22;16268;49.880;8.648;2022-11-14T03:51:15;5.00;99.90
29241;DHT22;16268;49.880;8.648;2022-11-14T03:53:41;5.00;99.90
29241;DHT22;16268;49.880;8.648;2022-11-14T03:56:09;5.10;99.90
29241;DHT22;16268;49.880;8.648;2022-11-14T03:58:35;5.10;99.90
29241;DHT22;16268;49.880;8.648;2022-11-14T04:01:00;5.10;99.90
29241;DHT22;16268;49.880;8.648;2022-11-14T04:03:28;5.10;99.90
29241;DHT22;16268;49.880;8.648;2022-11-14T04:05:53;5.20;99.90
29241;DHT22;16268;49.880;8.648;2022-11-14T04:08:19;5.30;99.90
29241;DHT22;16268;49.880;8.648;2022-11-14T04:10:48;5.40;99.90
29241;DHT22;16268;49.880;8.648;2022-11-14T04:13:14;5.40;99.90
29241;DHT22;16268;49.880;8.648;2022-11-14T04:15:40;5.60;99.90
29241;DHT22;16268;49.880;8.648;2022-11-14T04:18:05;5.80;99.90
29241;DHT22;16268;49.880;8.648;2022-11-14T04:20:31;5.90;99.90
29241;DHT22;16268;49.880;8.648;2022-11-14T04:22:57;5.90;99.90
29241;DHT22;16268;49.880;8.648;2022-11-14T04:25:22;6.00;99.90
29241;DHT22;16268;49.880;8.648;2022-11-14T04:27:48;6.10;99.90
29241;DHT22;16268;49.880;8.648;2022-11-14T04:30:13;6.20;99.90
29241;DHT22;16268;49.880;8.648;2022-11-14T04:32:39;6.40;99.90
29241;DHT22;16268;49.880;8.648;2022-11-14T04:35:05;6.30;99.90
29241;DHT22;16268;49.880;8.648;2022-11-14T04:37:30;6.20;99.90
29241;DHT22;16268;49.880;8.648;2022-11-14T04:39:56;6.20;99.90
29241;DHT22;16268;49.880;8.648;2022-11-14T04:42:25;6.20;99.90
29241;DHT22;16268;49.880;8.648;2022-11-14T04:44:50;6.20;99.90
29241;DHT22;16268;49.880;8.648;2022-11-14T04:47:16;6.30;99.90
29241;DHT22;16268;49.880;8.648;2022-11-14T04:49:42;6.40;99.90
29241;DHT22;16268;49.880;8.648;2022-11-14T04:52:07;6.40;99.90
29241;DHT22;16268;49.880;8.648;2022-11-14T04:54:33;6.40;99.90
29241;DHT22;16268;49.880;8.648;2022-11-14T04:56:58;6.40;99.90
29241;DHT22;16268;49.880;8.648;2022-11-14T04:59:24;6.40;99.90
29241;DHT22;16268;49.880;8.648;2022-11-14T05:01:49;6.40;99.90
29241;DHT22;16268;49.880;8.648;2022-11-14T05:04:15;6.30;99.90
29241;DHT22;16268;49.880;8.648;2022-11-14T05:06:40;6.40;99.90
29241;DHT22;16268;49.880;8.648;2022-11-14T05:09:06;6.40;99.90
29241;DHT22;16268;49.880;8.648;2022-11-14T05:11:31;6.40;99.90
29241;DHT22;16268;49.880;8.648;2022-11-14T05:13:57;6.40;99.90
29241;DHT22;16268;49.880;8.648;2022-11-14T05:16:22;6.50;99.90
29241;DHT22;16268;49.880;8.648;2022-11-14T05:18:48;6.50;99.90
29241;DHT22;16268;49.880;8.648;2022-11-14T05:21:14;6.60;99.90
29241;DHT22;16268;49.880;8.648;2022-11-14T05:23:40;6.70;99.90
29241;DHT22;16268;49.880;8.648;2022-11-14T05:26:08;6.70;99.90
29241;DHT22;16268;49.880;8.648;2022-11-14T05:28:34;6.90;99.90
29241;DHT22;16268;49.880;8.648;2022-11-14T05:31:08;6.90;99.90
29241;DHT22;16268;49.880;8.648;2022-11-14T05:33:34;7.00;99.90
29241;DHT22;16268;49.880;8.648;2022-11-14T05:36:08;7.10;99.90
29241;DHT22;16268;49.880;8.648;2022-11-14T05:38:34;7.00;99.90
29241;DHT22;16268;49.880;8.648;2022-11-14T05:41:04;7.00;99.90
29241;DHT22;16268;49.880;8.648;2022-11-14T05:43:30;6.90;99.90
29241;DHT22;16268;49.880;8.648;2022-11-14T05:46:00;6.90;99.90
29241;DHT22;16268;49.880;8.648;2022-11-14T05:48:25;6.90;99.90
29241;DHT22;16268;49.880;8.648;2022-11-14T05:50:55;6.90;99.90
29241;DHT22;16268;49.880;8.648;2022-11-14T05:53:21;7.00;99.90
29241;DHT22;16268;49.880;8.648;2022-11-14T05:55:46;7.10;99.90
29241;DHT22;16268;49.880;8.648;2022-11-14T05:58:12;7.20;99.90
29241;DHT22;16268;49.880;8.648;2022-11-14T06:00:37;7.20;99.90
29241;DHT22;16268;49.880;8.648;2022-11-14T06:03:03;7.10;99.90
29241;DHT22;16268;49.880;8.648;2022-11-14T06:05:28;7.10;99.90
29241;DHT22;16268;49.880;8.648;2022-11-14T06:07:56;7.00;99.90
29241;DHT22;16268;49.880;8.648;2022-11-14T06:10:22;7.10;99.90
29241;DHT22;16268;49.880;8.648;2022-11-14T06:12:48;7.10;99.90
29241;DHT22;16268;49.880;8.648;2022-11-14T06:15:13;7.10;99.90
29241;DHT22;16268;49.880;8.648;2022-11-14T06:17:39;7.10;99.90
29241;DHT22;16268;49.880;8.648;2022-11-14T06:20:05;7.10;99.90
29241;DHT22;16268;49.880;8.648;2022-11-14T06:22:30;7.10;99.90
29241;DHT22;16268;49.880;8.648;2022-11-14T06:24:57;7.10;99.90
29241;DHT22;16268;49.880;8.648;2022-11-14T06:27:23;7.10;99.90
29241;DHT22;16268;49.880;8.648;2022-11-14T06:29:48;7.00;99.90
29241;DHT22;16268;49.880;8.648;2022-11-14T06:32:14;6.90;99.90
29241;DHT22;16268;49.880;8.648;2022-11-14T06:34:39;6.90;99.90
29241;DHT22;16268;49.880;8.648;2022-11-14T06:37:05;6.90;99.90
29241;DHT22;16268;49.880;8.648;2022-11-14T06:39:30;7.00;99.90
29241;DHT22;16268;49.880;8.648;2022-11-14T06:41:56;7.00;99.90
29241;DHT22;16268;49.880;8.648;2022-11-14T06:44:22;7.00;99.90
29241;DHT22;16268;49.880;8.648;2022-11-14T06:46:47;6.90;99.90
29241;DHT22;16268;49.880;8.648;2022-11-14T06:49:13;7.00;99.90
29241;DHT22;16268;49.880;8.648;2022-11-14T06:51:38;7.00;99.90
29241;DHT22;16268;49.880;8.648;2022-11-14T06:54:04;7.00;99.90
29241;DHT22;16268;49.880;8.648;2022-11-14T06:56:30;7.00;99.90
29241;DHT22;16268;49.880;8.648;2022-11-14T06:58:55;7.00;99.90
29241;DHT22;16268;49.880;8.648;2022-11-14T07:01:24;7.00;99.90
29241;DHT22;16268;49.880;8.648;2022-11-14T07:03:53;6.90;99.90
29241;DHT22;16268;49.880;8.648;2022-11-14T07:06:22;6.90;99.90
29241;DHT22;16268;49.880;8.648;2022-11-14T07:08:48;6.90;99.90
29241;DHT22;16268;49.880;8.648;2022-11-14T07:11:19;6.80;99.90
29241;DHT22;16268;49.880;8.648;2022-11-14T07:13:53;6.80;99.90
29241;DHT22;16268;49.880;8.648;2022-11-14T07:16:19;6.80;99.90
29241;DHT22;16268;49.880;8.648;2022-11-14T07:18:45;6.80;99.90
29241;DHT22;16268;49.880;8.648;2022-11-14T07:21:11;6.80;99.90
29241;DHT22;16268;49.880;8.648;2022-11-14T07:23:38;6.80;99.90
29241;DHT22;16268;49.880;8.648;2022-11-14T07:26:06;6.80;99.90
29241;DHT22;16268;49.880;8.648;2022-11-14T07:28:37;6.80;99.90
29241;DHT22;16268;49.880;8.648;2022-11-14T07:31:05;6.90;99.90
29241;DHT22;16268;49.880;8.648;2022-11-14T07:33:31;6.90;99.90
29241;DHT22;16268;49.880;8.648;2022-11-14T07:36:04;7.00;99.90
29241;DHT22;16268;49.880;8.648;2022-11-14T07:38:37;7.00;99.90
29241;DHT22;16268;49.880;8.648;2022-11-14T07:41:12;7.10;99.90
29241;DHT22;16268;49.880;8.648;2022-11-14T07:43:39;7.20;99.90
29241;DHT22;16268;49.880;8.648;2022-11-14T07:46:11;7.20;99.90
29241;DHT22;16268;49.880;8.648;2022-11-14T07:48:37;7.10;99.90
29241;DHT22;16268;49.880;8.648;2022-11-14T07:51:05;7.20;99.90
29241;DHT22;16268;49.880;8.648;2022-11-14T07:53:31;7.20;99.90
29241;DHT22;16268;49.880;8.648;2022-11-14T07:56:03;7.20;99.90
29241;DHT22;16268;49.880;8.648;2022-11-14T07:58:28;7.30;99.90
29241;DHT22;16268;49.880;8.648;2022-11-14T08:00:54;7.30;99.90
29241;DHT22;16268;49.880;8.648;2022-11-14T08:03:19;7.30;99.90
29241;DHT22;16268;49.880;8.648;2022-11-14T08:05:45;7.20;99.90
29241;DHT22;16268;49.880;8.648;2022-11-14T08:08:11;7.10;99.90
29241;DHT22;16268;49.880;8.648;2022-11-14T08:10:36;7.00;99.90
29241;DHT22;16268;49.880;8.648;2022-11-14T08:13:04;7.00;99.90
29241;DHT22;16268;49.880;8.648;2022-11-14T08:15:30;6.90;99.90
29241;DHT22;16268;49.880;8.648;2022-11-14T08:17:57;7.00;99.90
29241;DHT22;16268;49.880;8.648;2022-11-14T08:20:23;7.00;99.90
29241;DHT22;16268;49.880;8.648;2022-11-14T08:22:49;7.20;99.90
29241;DHT22;16268;49.880;8.648;2022-11-14T08:25:14;7.20;99.90
29241;DHT22;16268;49.880;8.648;2022-11-14T08:27:40;7.20;99.90
29241;DHT22;16268;49.880;8.648;2022-11-14T08:30:06;7.30;99.90
29241;DHT22;16268;49.880;8.648;2022-11-14T08:32:32;7.30;99.90
29241;DHT22;16268;49.880;8.648;2022-11-14T08:34:57;7.40;99.90
29241;DHT22;16268;49.880;8.648;2022-11-14T08:37:23;7.50;99.90
29241;DHT22;16268;49.880;8.648;2022-11-14T08:39:48;7.60;99.90
29241;DHT22;16268;49.880;8.648;2022-11-14T08:42:14;7.70;99.90
29241;DHT22;16268;49.880;8.648;2022-11-14T08:44:39;7.90;99.90
29241;DHT22;16268;49.880;8.648;2022-11-14T08:47:05;8.00;99.90
29241;DHT22;16268;49.880;8.648;2022-11-14T08:49:30;8.10;99.90
29241;DHT22;16268;49.880;8.648;2022-11-14T08:51:56;8.10;99.90
29241;DHT22;16268;49.880;8.648;2022-11-14T08:54:22;8.10;99.90
29241;DHT22;16268;49.880;8.648;2022-11-14T08:56:47;8.10;99.90
29241;DHT22;16268;49.880;8.648;2022-11-14T08:59:13;8.40;99.90
29241;DHT22;16268;49.880;8.648;2022-11-14T09:01:38;8.80;99.90
29241;DHT22;16268;49.880;8.648;2022-11-14T09:04:06;9.20;99.90
29241;DHT22;16268;49.880;8.648;2022-11-14T09:06:34;9.30;99.90
29241;DHT22;16268;49.880;8.648;2022-11-14T09:09:03;9.50;99.90
29241;DHT22;16268;49.880;8.648;2022-11-14T09:11:31;9.70;99.90
29241;DHT22;16268;49.880;8.648;2022-11-14T09:13:59;9.90;99.90
29241;DHT22;16268;49.880;8.648;2022-11-14T09:16:26;10.00;99.90
29241;DHT22;16268;49.880;8.648;2022-11-14T09:18:51;10.00;99.90
29241;DHT22;16268;49.880;8.648;2022-11-14T09:21:20;10.10;99.90
29241;DHT22;16268;49.880;8.648;2022-11-14T09:23:46;10.10;99.90
29241;DHT22;16268;49.880;8.648;2022-11-14T09:26:12;10.60;99.90
29241;DHT22;16268;49.880;8.648;2022-11-14T09:28:38;11.00;99.90
29241;DHT22;16268;49.880;8.648;2022-11-14T09:31:06;11.20;99.90
29241;DHT22;16268;49.880;8.648;2022-11-14T09:33:42;11.00;99.90
29241;DHT22;16268;49.880;8.648;2022-11-14T09:36:11;11.00;99.90
29241;DHT22;16268;49.880;8.648;2022-11-14T09:38:44;11.00;99.90
29241;DHT22;16268;49.880;8.648;2022-11-14T09:41:25;11.10;99.90
29241;DHT22;16268;49.880;8.648;2022-11-14T09:46:46;11.00;99.90
29241;DHT22;16268;49.880;8.648;2022-11-14T09:54:58;10.30;99.90
29241;DHT22;16268;49.880;8.648;2022-11-14T09:57:26;10.40;99.90
29241;DHT22;16268;49.880;8.648;2022-11-14T09:59:52;10.40;99.90
29241;DHT22;16268;49.880;8.648;2022-11-14T10:02:38;10.40;99.90
29241;DHT22;16268;49.880;8.648;2022-11-14T10:05:22;10.40;99.90
29241;DHT22;16268;49.880;8.648;2022-11-14T10:08:04;10.40;99.90
29241;DHT22;16268;49.880;8.648;2022-11-14T10:10:42;10.50;99.90
29241;DHT22;16268;49.880;8.648;2022-11-14T10:21:13;10.60;99.90
29241;DHT22;16268;49.880;8.648;2022-11-14T10:23:47;10.60;99.90
29241;DHT22;16268;49.880;8.648;2022-11-14T10:26:28;10.50;99.90
29241;DHT22;16268;49.880;8.648;2022-11-14T10:32:44;10.80;99.90
29241;DHT22;16268;49.880;8.648;2022-11-14T10:37:56;11.20;99.90
29241;DHT22;16268;49.880;8.648;2022-11-14T10:40:28;11.20;99.90
29241;DHT22;16268;49.880;8.648;2022-11-14T10:43:01;11.30;99.90
29241;DHT22;16268;49.880;8.648;2022-11-14T10:45:42;11.20;99.90
29241;DHT22;16268;49.880;8.648;2022-11-14T10:48:13;11.20;99.90
29241;DHT22;16268;49.880;8.648;2022-11-14T10:50:54;11.10;99.90
29241;DHT22;16268;49.880;8.648;2022-11-14T10:53:57;11.20;99.90
29241;DHT22;16268;49.880;8.648;2022-11-14T10:56:25;11.30;99.90
29241;DHT22;16268;49.880;8.648;2022-11-14T10:58:50;11.40;99.90
29241;DHT22;16268;49.880;8.648;2022-11-14T11:01:44;11.40;99.90
29241;DHT22;16268;49.880;8.648;2022-11-14T11:04:21;11.40;99.90
29241;DHT22;16268;49.880;8.648;2022-11-14T11:06:50;11.30;99.90
29241;DHT22;16268;49.880;8.648;2022-11-14T11:09:21;11.20;99.90
29241;DHT22;16268;49.880;8.648;2022-11-14T11:12:07;11.20;99.90
29241;DHT22;16268;49.880;8.648;2022-11-14T11:14:36;11.10;99.90
29241;DHT22;16268;49.880;8.648;2022-11-14T11:19:40;11.20;99.90
29241;DHT22;16268;49.880;8.648;2022-11-14T11:22:36;11.20;99.90
29241;DHT22;16268;49.880;8.648;2022-11-14T11:25:22;11.30;99.90
29241;DHT22;16268;49.880;8.648;2022-11-14T11:28:15;11.50;99.90
29241;DHT22;16268;49.880;8.648;2022-11-14T11:30:55;11.70;99.90
29241;DHT22;16268;49.880;8.648;2022-11-14T11:33:24;11.80;99.90
29241;DHT22;16268;49.880;8.648;2022-11-14T11:35:52;11.80;99.90
29241;DHT22;16268;49.880;8.648;2022-11-14T11:38:19;12.00;99.90
29241;DHT22;16268;49.880;8.648;2022-11-14T11:40:49;12.10;99.90
29241;DHT22;16268;49.880;8.648;2022-11-14T11:45:43;12.20;99.90
29241;DHT22;16268;49.880;8.648;2022-11-14T11:48:17;12.30;99.90
29241;DHT22;16268;49.880;8.648;2022-11-14T11:50:43;12.30;99.90
29241;DHT22;16268;49.880;8.648;2022-11-14T11:53:28;12.40;99.90
29241;DHT22;16268;49.880;8.648;2022-11-14T11:56:00;12.40;99.90
29241;DHT22;16268;49.880;8.648;2022-11-14T12:01:33;12.70;99.90
29241;DHT22;16268;49.880;8.648;2022-11-14T12:03:59;12.40;99.90
29241;DHT22;16268;49.880;8.648;2022-11-14T12:06:27;12.30;99.90
29241;DHT22;16268;49.880;8.648;2022-11-14T12:11:22;12.10;99.90
29241;DHT22;16268;49.880;8.648;2022-11-14T12:14:20;12.10;99.90
29241;DHT22;16268;49.880;8.648;2022-11-14T12:25:44;12.30;99.90
29241;DHT22;16268;49.880;8.648;2022-11-14T12:30:56;12.30;99.90
29241;DHT22;16268;49.880;8.648;2022-11-14T12:33:42;12.20;99.90
29241;DHT22;16268;49.880;8.648;2022-11-14T12:36:10;12.20;99.90
29241;DHT22;16268;49.880;8.648;2022-11-14T12:38:47;12.20;99.90
29241;DHT22;16268;49.880;8.648;2022-11-14T12:41:32;12.30;99.90
29241;DHT22;16268;49.880;8.648;2022-11-14T13:00:27;12.20;99.90
29241;DHT22;16268;49.880;8.648;2022-11-14T13:08:56;12.10;99.90
29241;DHT22;16268;49.880;8.648;2022-11-14T13:11:34;12.10;99.90
29241;DHT22;16268;49.880;8.648;2022-11-14T13:14:19;12.30;99.90
29241;DHT22;16268;49.880;8.648;2022-11-14T13:19:56;12.40;99.90
29241;DHT22;16268;49.880;8.648;2022-11-14T13:22:45;12.50;99.90
29241;DHT22;16268;49.880;8.648;2022-11-14T13:25:14;12.50;99.90
29241;DHT22;16268;49.880;8.648;2022-11-14T13:27:40;12.40;99.90
29241;DHT22;16268;49.880;8.648;2022-11-14T13:30:06;12.40;99.90
29241;DHT22;16268;49.880;8.648;2022-11-14T13:43:29;12.50;99.90
29241;DHT22;16268;49.880;8.648;2022-11-14T13:51:31;12.50;99.90
29241;DHT22;16268;49.880;8.648;2022-11-14T13:53:57;12.50;99.90
29241;DHT22;16268;49.880;8.648;2022-11-14T14:05:20;12.30;99.90
29241;DHT22;16268;49.880;8.648;2022-11-14T14:07:55;12.30;99.90
29241;DHT22;16268;49.880;8.648;2022-11-14T14:30:03;12.60;99.90
29241;DHT22;16268;49.880;8.648;2022-11-14T14:32:31;12.50;99.90
29241;DHT22;16268;49.880;8.648;2022-11-14T14:34:57;12.40;99.90
29241;DHT22;16268;49.880;8.648;2022-11-14T14:37:27;12.40;99.90
29241;DHT22;16268;49.880;8.648;2022-11-14T14:40:04;12.40;99.90
29241;DHT22;16268;49.880;8.648;2022-11-14T14:42:37;12.50;99.90
29241;DHT22;16268;49.880;8.648;2022-11-14T14:45:03;12.50;99.90
29241;DHT22;16268;49.880;8.648;2022-11-14T14:47:40;12.40;99.90
29241;DHT22;16268;49.880;8.648;2022-11-14T14:50:23;12.50;99.90
29241;DHT22;16268;49.880;8.648;2022-11-14T14:53:00;12.50;99.90
29241;DHT22;16268;49.880;8.648;2022-11-14T14:55:29;12.40;99.90
29241;DHT22;16268;49.880;8.648;2022-11-14T14:58:14;12.30;99.90
29241;DHT22;16268;49.880;8.648;2022-11-14T15:00:50;12.20;99.90
29241;DHT22;16268;49.880;8.648;2022-11-14T15:03:17;12.10;99.90
29241;DHT22;16268;49.880;8.648;2022-11-14T15:05:43;12.10;99.90
29241;DHT22;16268;49.880;8.648;2022-11-14T15:08:13;12.00;99.90
29241;DHT22;16268;49.880;8.648;2022-11-14T15:10:40;11.90;99.90
29241;DHT22;16268;49.880;8.648;2022-11-14T15:13:09;11.90;99.90
29241;DHT22;16268;49.880;8.648;2022-11-14T15:15:37;11.80;99.90
29241;DHT22;16268;49.880;8.648;2022-11-14T15:18:06;11.80;99.90
29241;DHT22;16268;49.880;8.648;2022-11-14T15:20:33;11.80;99.90
29241;DHT22;16268;49.880;8.648;2022-11-14T15:25:39;11.70;99.90
29241;DHT22;16268;49.880;8.648;2022-11-14T15:28:18;11.60;99.90
29241;DHT22;16268;49.880;8.648;2022-11-14T15:30:56;11.60;99.90
29241;DHT22;16268;49.880;8.648;2022-11-14T15:33:28;11.50;99.90
29241;DHT22;16268;49.880;8.648;2022-11-14T15:36:11;11.40;99.90
29241;DHT22;16268;49.880;8.648;2022-11-14T15:39:18;11.40;99.90
29241;DHT22;16268;49.880;8.648;2022-11-14T15:41:45;11.30;99.90
29241;DHT22;16268;49.880;8.648;2022-11-14T15:44:31;11.30;99.90
29241;DHT22;16268;49.880;8.648;2022-11-14T15:47:00;11.30;99.90
29241;DHT22;16268;49.880;8.648;2022-11-14T15:49:27;11.30;99.90
29241;DHT22;16268;49.880;8.648;2022-11-14T15:51:57;11.20;99.90
29241;DHT22;16268;49.880;8.648;2022-11-14T15:54:27;11.20;99.90
29241;DHT22;16268;49.880;8.648;2022-11-14T15:56:56;11.10;99.90
29241;DHT22;16268;49.880;8.648;2022-11-14T15:59:24;11.10;99.90
29241;DHT22;16268;49.880;8.648;2022-11-14T16:01:53;11.10;99.90
29241;DHT22;16268;49.880;8.648;2022-11-14T16:04:28;11.20;99.90
29241;DHT22;16268;49.880;8.648;2022-11-14T16:06:54;11.20;99.90
29241;DHT22;16268;49.880;8.648;2022-11-14T16:09:20;11.20;99.90
29241;DHT22;16268;49.880;8.648;2022-11-14T16:11:46;11.20;99.90
29241;DHT22;16268;49.880;8.648;2022-11-14T16:14:12;11.20;99.90
29241;DHT22;16268;49.880;8.648;2022-11-14T16:16:38;11.20;99.90
29241;DHT22;16268;49.880;8.648;2022-11-14T16:19:04;11.10;99.90
29241;DHT22;16268;49.880;8.648;2022-11-14T16:21:31;11.10;99.90
29241;DHT22;16268;49.880;8.648;2022-11-14T16:23:57;11.20;99.90
29241;DHT22;16268;49.880;8.648;2022-11-14T16:26:23;11.20;99.90
29241;DHT22;16268;49.880;8.648;2022-11-14T16:28:52;11.20;99.90
29241;DHT22;16268;49.880;8.648;2022-11-14T16:31:19;11.20;99.90
29241;DHT22;16268;49.880;8.648;2022-11-14T16:33:45;11.20;99.90
29241;DHT22;16268;49.880;8.648;2022-11-14T16:36:11;11.20;99.90
29241;DHT22;16268;49.880;8.648;2022-11-14T16:38:37;11.30;99.90
29241;DHT22;16268;49.880;8.648;2022-11-14T16:41:06;11.40;99.90
29241;DHT22;16268;49.880;8.648;2022-11-14T16:43:32;11.50;99.90
29241;DHT22;16268;49.880;8.648;2022-11-14T16:46:05;11.60;99.90
29241;DHT22;16268;49.880;8.648;2022-11-14T16:48:31;11.70;99.90
29241;DHT22;16268;49.880;8.648;2022-11-14T16:51:03;11.80;99.90
29241;DHT22;16268;49.880;8.648;2022-11-14T16:53:29;11.90;99.90
29241;DHT22;16268;49.880;8.648;2022-11-14T16:55:55;11.90;99.90
29241;DHT22;16268;49.880;8.648;2022-11-14T16:58:21;12.00;99.90
29241;DHT22;16268;49.880;8.648;2022-11-14T17:00:47;12.00;99.90
29241;DHT22;16268;49.880;8.648;2022-11-14T17:03:13;12.10;99.90
29241;DHT22;16268;49.880;8.648;2022-11-14T17:05:46;12.20;99.90
29241;DHT22;16268;49.880;8.648;2022-11-14T17:08:13;12.20;99.90
29241;DHT22;16268;49.880;8.648;2022-11-14T17:10:40;12.20;99.90
29241;DHT22;16268;49.880;8.648;2022-11-14T17:13:06;12.30;99.90
29241;DHT22;16268;49.880;8.648;2022-11-14T17:15:31;12.30;99.90
29241;DHT22;16268;49.880;8.648;2022-11-14T17:17:57;12.30;99.90
29241;DHT22;16268;49.880;8.648;2022-11-14T17:20:22;12.40;99.90
29241;DHT22;16268;49.880;8.648;2022-11-14T17:22:48;12.40;99.90
29241;DHT22;16268;49.880;8.648;2022-11-14T17:25:13;12.50;99.90
29241;DHT22;16268;49.880;8.648;2022-11-14T17:27:39;12.40;99.90
29241;DHT22;16268;49.880;8.648;2022-11-14T17:30:05;12.50;99.90
29241;DHT22;16268;49.880;8.648;2022-11-14T17:32:31;12.40;99.90
29241;DHT22;16268;49.880;8.648;2022-11-14T17:34:56;12.40;99.90
29241;DHT22;16268;49.880;8.648;2022-11-14T17:37:22;12.50;99.90
29241;DHT22;16268;49.880;8.648;2022-11-14T17:39:48;12.50;99.90
29241;DHT22;16268;49.880;8.648;2022-11-14T17:42:13;12.50;99.90
29241;DHT22;16268;49.880;8.648;2022-11-14T17:44:39;12.60;99.90
29241;DHT22;16268;49.880;8.648;2022-11-14T17:47:04;12.60;99.90